Christina O — C6FN7 — position and weather

sailwx.info

Track history (hours):
 
Tides and Currents Weather Stations Pressure Air Temp Water Temp Dewpoint Dewpoint Depression Visibility Wind Speed Wind Dir Waves Ship Positions

Christina O

Operator: V Ships Leisure SAM

Last reported at 2019-Jul-22 13:29 UTC. Time now 2019-Jul-22 14:00 UTC.
Position N 41°47' E 011°46'.

Length 186 m; draft 6.1 m.

Type: Passenger vessel. MMSI: 308322000.

Date/timePositionNaut miles runAvg speedWind from/ knotsBaromVisibWave heightAir tempDewpointWater temp
2019-Jul-22 13:29N 41°47' E 011°46'4 9.3
2019-Jul-22 13:00N 41°50' E 011°42'9 9.4
2019-Jul-22 12:05N 41°57' E 011°35'1 9.3
2019-Jul-22 11:59N 41°58' E 011°35'27 9.3
2019-Jul-22 09:07N 42°18' E 011°11'1 9.5
2019-Jul-22 09:00N 42°19' E 011°10'5 9.5
2019-Jul-22 08:28N 42°22' E 011°04'4 9.6
2019-Jul-22 08:00N 42°25' E 010°60'5 9.4
2019-Jul-22 07:30N 42°28' E 010°56'5 9.4
2019-Jul-22 07:00N 42°32' E 010°52'5 9.5
2019-Jul-22 06:30N 42°36' E 010°48'5 9.6
2019-Jul-22 06:00N 42°39' E 010°44'5 9.4
2019-Jul-22 05:30N 42°43' E 010°40'5 9.5
2019-Jul-22 05:00N 42°47' E 010°36'5 9.4
2019-Jul-22 04:30N 42°51' E 010°32'5 9.5
2019-Jul-22 04:00N 42°55' E 010°28'5 9.5
2019-Jul-22 03:30N 42°59' E 010°25'5 9.4
2019-Jul-22 03:00N 43°03' E 010°22'5 9.6
2019-Jul-22 02:30N 43°07' E 010°19'5 9.6
2019-Jul-22 02:00N 43°11' E 010°15'5 9.3
2019-Jul-22 01:30N 43°15' E 010°12'5 9.1
2019-Jul-22 01:00N 43°19' E 010°09'5 9.1
2019-Jul-22 00:30N 43°23' E 010°06'5 9.3
2019-Jul-22 00:00N 43°27' E 010°03'5 9.5
2019-Jul-21 23:30N 43°31' E 009°59'5 9.5
2019-Jul-21 23:00N 43°35' E 009°55'5 9.3
2019-Jul-21 22:30N 43°39' E 009°53'5 9.3
2019-Jul-21 22:00N 43°44' E 009°53'5 9.6
2019-Jul-21 21:30N 43°49' E 009°53'5 9.6
2019-Jul-21 21:00N 43°54' E 009°53'510.7
2019-Jul-21 20:30N 43°59' E 009°53'5 9.0
2019-Jul-21 20:00N 44°03' E 009°51'0 0.2
2019-Jul-21 19:29N 44°03' E 009°51'0 0.0
2019-Jul-21 18:59N 44°03' E 009°51'0 0.0
2019-Jul-21 18:29N 44°03' E 009°51'0 0.0
2019-Jul-21 17:59N 44°03' E 009°51'0 0.0
2019-Jul-21 17:29N 44°03' E 009°51'0 0.0
2019-Jul-21 16:59N 44°03' E 009°51'0 0.0
2019-Jul-21 16:29N 44°03' E 009°51'0 0.0
2019-Jul-21 15:59N 44°03' E 009°51'0 0.0
2019-Jul-21 15:29N 44°03' E 009°51'0 0.0
2019-Jul-21 14:59N 44°03' E 009°51'0 0.0
2019-Jul-21 14:29N 44°03' E 009°51'0 0.0
2019-Jul-21 13:59N 44°03' E 009°51'0 0.0
2019-Jul-21 13:29N 44°03' E 009°51'0 0.0
2019-Jul-21 12:59N 44°03' E 009°51'0 0.0
2019-Jul-21 12:29N 44°03' E 009°51'0 0.0
2019-Jul-21 11:59N 44°03' E 009°51'0 0.1
2019-Jul-21 11:29N 44°03' E 009°51'0 0.0
2019-Jul-21 10:59N 44°03' E 009°51'0 0.0
2019-Jul-21 10:29N 44°03' E 009°51'0 0.0
2019-Jul-21 09:58N 44°03' E 009°51'0 0.0
2019-Jul-21 09:29N 44°03' E 009°51'0 0.0
2019-Jul-21 08:59N 44°03' E 009°51'0 0.0
2019-Jul-21 08:29N 44°03' E 009°51'0 0.0
2019-Jul-21 07:59N 44°03' E 009°51'0 0.0
2019-Jul-21 07:29N 44°03' E 009°51'0 0.0
2019-Jul-21 06:58N 44°03' E 009°51'0 0.0
2019-Jul-21 06:29N 44°03' E 009°51'0 0.0
2019-Jul-21 05:59N 44°03' E 009°51'0 0.0
2019-Jul-21 05:30N 44°03' E 009°51'1 1.6
2019-Jul-21 05:00N 44°03' E 009°52'3 6.2
2019-Jul-21 04:31N 44°01' E 009°56'612.5
2019-Jul-21 04:00N 43°56' E 009°51'612.5
2019-Jul-21 03:30N 43°53' E 009°43'612.7
2019-Jul-21 03:00N 43°52' E 009°34'713.1
2019-Jul-21 02:31N 43°51' E 009°25'815.1
2019-Jul-21 02:01N 43°50' E 009°15'816.2
2019-Jul-21 01:31N 43°49' E 009°04'816.0
2019-Jul-21 01:01N 43°48' E 008°53'816.0
2019-Jul-21 00:31N 43°46' E 008°42'816.1
2019-Jul-21 00:01N 43°45' E 008°31'815.9
2019-Jul-20 23:31N 43°44' E 008°20'815.9
2019-Jul-20 23:01N 43°43' E 008°09'815.8
2019-Jul-20 22:31N 43°43' E 007°58'815.8
2019-Jul-20 22:01N 43°43' E 007°47'816.0
2019-Jul-20 21:31N 43°44' E 007°36'714.0
2019-Jul-20 21:01N 43°44' E 007°27'0 0.1
2019-Jul-20 20:30N 43°44' E 007°26'0 0.0
2019-Jul-20 20:00N 43°44' E 007°26'0 0.0
2019-Jul-20 19:30N 43°44' E 007°26'0 0.0
2019-Jul-20 19:00N 43°44' E 007°26'0 0.0
2019-Jul-20 18:30N 43°44' E 007°26'0 0.0
2019-Jul-20 18:00N 43°44' E 007°26'0 0.0
2019-Jul-20 17:30N 43°44' E 007°27'0 0.0
2019-Jul-20 17:00N 43°44' E 007°27'0 0.0
2019-Jul-20 16:30N 43°44' E 007°27'0 0.0
2019-Jul-20 16:00N 43°44' E 007°26'0 0.0
2019-Jul-20 15:30N 43°44' E 007°26'0 0.0
2019-Jul-20 15:00N 43°44' E 007°26'0 0.0
2019-Jul-20 14:30N 43°44' E 007°26'0 0.0
2019-Jul-20 14:00N 43°44' E 007°26'0 0.0
2019-Jul-20 13:30N 43°44' E 007°26'0 0.0
2019-Jul-20 12:59N 43°44' E 007°26'0 0.0
2019-Jul-20 12:30N 43°44' E 007°26'0 0.0
2019-Jul-20 12:00N 43°44' E 007°26'0 0.0
2019-Jul-20 11:30N 43°44' E 007°26'0 0.0
2019-Jul-20 11:00N 43°44' E 007°26'0 0.0
2019-Jul-20 10:30N 43°44' E 007°26'0 0.0
2019-Jul-20 10:00N 43°44' E 007°26'0 0.0
2019-Jul-20 09:29N 43°44' E 007°26'0 0.0
2019-Jul-20 09:00N 43°44' E 007°26'0 0.0
2019-Jul-20 08:30N 43°44' E 007°26'0 0.0
2019-Jul-20 07:59N 43°44' E 007°26'0 0.0
2019-Jul-20 07:30N 43°44' E 007°26'0 0.0
2019-Jul-20 07:00N 43°44' E 007°26'0 0.0
2019-Jul-20 06:30N 43°44' E 007°26'0 0.0
2019-Jul-20 06:00N 43°44' E 007°26'0 0.0
2019-Jul-20 05:27N 43°44' E 007°26'0 0.1
2019-Jul-20 05:00N 43°44' E 007°27'2 4.6
2019-Jul-20 04:30N 43°42' E 007°28'4 8.4
2019-Jul-20 04:00N 43°39' E 007°25'510.5
2019-Jul-20 03:30N 43°34' E 007°21'510.4
2019-Jul-20 03:00N 43°31' E 007°16'510.6
2019-Jul-20 02:30N 43°27' E 007°11'510.7
2019-Jul-20 02:00N 43°23' E 007°06'510.5
2019-Jul-20 01:30N 43°19' E 007°01'510.3
2019-Jul-20 01:00N 43°16' E 006°56'510.4
2019-Jul-20 00:30N 43°12' E 006°51'510.6
2019-Jul-20 00:00N 43°08' E 006°46'510.6
2019-Jul-19 23:30N 43°04' E 006°41'510.7
2019-Jul-19 23:00N 43°00' E 006°36'510.5
2019-Jul-19 22:30N 42°57' E 006°30'510.4
2019-Jul-19 22:00N 42°55' E 006°24'510.4
2019-Jul-19 21:30N 42°55' E 006°17'510.4
2019-Jul-19 21:00N 42°55' E 006°10'510.5
2019-Jul-19 20:30N 42°56' E 006°03'510.4
2019-Jul-19 20:00N 42°57' E 005°56'16 9.9
2019-Jul-19 18:23N 43°03' E 005°35'4 9.9
2019-Jul-19 18:00N 43°04' E 005°31'6 9.9
2019-Jul-19 17:24N 43°07' E 005°23'8 9.1
2019-Jul-19 16:28N 43°15' E 005°18'4 0.5
2019-Jul-19 09:11N 43°18' E 005°22'0 0.0
2019-Jul-19 08:59N 43°18' E 005°22'0 0.0
2019-Jul-19 08:30N 43°18' E 005°22'0 0.0
2019-Jul-19 07:59N 43°18' E 005°22'0 0.0
2019-Jul-19 07:29N 43°18' E 005°22'0 0.0
2019-Jul-19 06:59N 43°18' E 005°22'0 0.0
2019-Jul-19 06:29N 43°18' E 005°22'0 0.0
2019-Jul-19 05:59N 43°18' E 005°22'16813.6
2019-Jul-18 17:40N 41°25' E 002°34'315.5
2019-Jul-18 17:30N 41°24' E 002°31'815.5
2019-Jul-18 17:00N 41°20' E 002°22'815.2
2019-Jul-18 16:30N 41°21' E 002°12'2 3.1
2019-Jul-18 15:56N 41°22' E 002°11'0 0.0
2019-Jul-18 15:29N 41°22' E 002°11'0 0.0
2019-Jul-18 14:56N 41°22' E 002°11'0 0.0
2019-Jul-18 14:29N 41°22' E 002°11'0 0.0
2019-Jul-18 13:59N 41°22' E 002°11'0 0.0
2019-Jul-18 13:29N 41°22' E 002°11'0 0.0
2019-Jul-18 12:59N 41°22' E 002°11'0 0.0
2019-Jul-18 12:29N 41°22' E 002°11'0 0.0
2019-Jul-18 11:50N 41°22' E 002°11'0 0.0
2019-Jul-18 11:29N 41°22' E 002°11'0 0.0
2019-Jul-18 10:59N 41°22' E 002°11'0 0.0
2019-Jul-18 10:20N 41°22' E 002°11'0 0.0
2019-Jul-18 09:59N 41°22' E 002°11'0 0.0
2019-Jul-18 09:26N 41°22' E 002°11'0 0.0
2019-Jul-18 08:50N 41°22' E 002°11'0 0.0
2019-Jul-18 08:29N 41°22' E 002°11'0 0.0
2019-Jul-18 07:59N 41°22' E 002°11'0 0.0
2019-Jul-18 07:29N 41°22' E 002°11'0 0.0
2019-Jul-18 06:56N 41°22' E 002°11'0 0.0
2019-Jul-18 06:23N 41°22' E 002°11'0 0.0
2019-Jul-18 05:47N 41°22' E 002°11'0 0.0
2019-Jul-18 05:26N 41°22' E 002°11'0 0.0
2019-Jul-18 04:56N 41°22' E 002°11'0 0.0
2019-Jul-18 04:26N 41°22' E 002°11'0 0.0
2019-Jul-18 03:59N 41°22' E 002°11'0 0.0
2019-Jul-18 03:26N 41°22' E 002°11'0 0.0
2019-Jul-18 02:59N 41°22' E 002°11'0 0.0
2019-Jul-18 02:26N 41°22' E 002°11'0 0.0
2019-Jul-18 01:59N 41°22' E 002°11'0 0.0
2019-Jul-18 01:29N 41°22' E 002°11'0 0.0
2019-Jul-18 00:59N 41°22' E 002°11'0 0.0
2019-Jul-18 00:29N 41°22' E 002°11'0 0.0
2019-Jul-17 23:59N 41°22' E 002°11'0 0.0
2019-Jul-17 23:29N 41°22' E 002°11'0 0.0
2019-Jul-17 22:59N 41°22' E 002°11'0 0.0
2019-Jul-17 22:29N 41°22' E 002°11'0 0.0
2019-Jul-17 21:59N 41°22' E 002°11'0 0.0
2019-Jul-17 21:29N 41°22' E 002°11'0 0.0
2019-Jul-17 20:59N 41°22' E 002°11'0 0.0
2019-Jul-17 20:26N 41°22' E 002°11'0 0.0
2019-Jul-17 19:59N 41°22' E 002°11'0 0.0
2019-Jul-17 19:29N 41°22' E 002°11'0 0.0
2019-Jul-17 18:59N 41°22' E 002°11'0 0.0
2019-Jul-17 18:29N 41°22' E 002°11'0 0.0
2019-Jul-17 17:59N 41°22' E 002°11'0 0.0
2019-Jul-17 17:29N 41°22' E 002°11'0 0.0
2019-Jul-17 16:59N 41°22' E 002°11'0 0.0
2019-Jul-17 16:29N 41°22' E 002°11'0 0.0
2019-Jul-17 15:59N 41°22' E 002°11'0 0.0
2019-Jul-17 15:26N 41°22' E 002°11'0 0.0
2019-Jul-17 14:59N 41°22' E 002°11'0 0.0
2019-Jul-17 14:29N 41°22' E 002°11'0 0.0
2019-Jul-17 13:59N 41°22' E 002°11'0 0.0
2019-Jul-17 13:29N 41°22' E 002°11'0 0.0
2019-Jul-17 12:59N 41°22' E 002°11'0 0.0
2019-Jul-17 12:26N 41°22' E 002°11'0 0.0
2019-Jul-17 11:59N 41°22' E 002°11'0 0.0
2019-Jul-17 11:29N 41°22' E 002°11'0 0.0
2019-Jul-17 10:59N 41°22' E 002°11'0 0.0
2019-Jul-17 10:30N 41°22' E 002°11'1 1.1
2019-Jul-17 10:00N 41°22' E 002°11'4 7.7
2019-Jul-17 09:30N 41°20' E 002°16'713.0
2019-Jul-17 09:00N 41°20' E 002°24'612.9
2019-Jul-17 08:30N 41°23' E 002°32'714.2
2019-Jul-17 08:00N 41°26' E 002°41'2015.6
2019-Jul-17 06:43N 41°35' E 003°05'615.8
2019-Jul-17 06:22N 41°38' E 003°11'615.8
2019-Jul-17 06:00N 41°41' E 003°18'815.9
2019-Jul-17 05:31N 41°44' E 003°27'815.9
2019-Jul-17 05:00N 41°48' E 003°37'815.9
2019-Jul-17 04:30N 41°52' E 003°46'815.9
2019-Jul-17 04:00N 41°56' E 003°56'816.0
2019-Jul-17 03:30N 41°59' E 004°05'816.0
2019-Jul-17 03:00N 42°03' E 004°15'816.0
2019-Jul-17 02:30N 42°07' E 004°25'816.1
2019-Jul-17 02:00N 42°10' E 004°34'816.3
2019-Jul-17 01:30N 42°14' E 004°44'1116.1
2019-Jul-17 00:48N 42°19' E 004°58'516.0
2019-Jul-17 00:27N 42°22' E 005°04'2816.1
2019-Jul-16 22:42N 42°35' E 005°38'316.4
2019-Jul-16 22:30N 42°36' E 005°42'1715.9
2019-Jul-16 21:25N 42°44' E 006°03'716.1
2019-Jul-16 21:00N 42°47' E 006°11'1216.2
2019-Jul-16 20:14N 42°54' E 006°25'416.2
2019-Jul-16 20:00N 42°56' E 006°30'816.3
2019-Jul-16 19:30N 43°02' E 006°38'816.4
2019-Jul-16 19:01N 43°08' E 006°45'816.4
2019-Jul-16 18:31N 43°14' E 006°53'816.2
2019-Jul-16 18:00N 43°20' E 007°01'816.2
2019-Jul-16 17:31N 43°25' E 007°08'816.4
2019-Jul-16 17:00N 43°31' E 007°16'816.2
2019-Jul-16 16:31N 43°37' E 007°24'714.1
2019-Jul-16 16:00N 43°44' E 007°27'1 1.1
2019-Jul-16 15:31N 43°44' E 007°26'0 0.0
2019-Jul-16 15:01N 43°44' E 007°26'0 0.0
2019-Jul-16 14:31N 43°44' E 007°26'0 0.0
2019-Jul-16 13:58N 43°44' E 007°26'0 0.0
2019-Jul-16 13:31N 43°44' E 007°26'0 0.0
2019-Jul-16 12:58N 43°44' E 007°26'0 0.0
2019-Jul-16 12:31N 43°44' E 007°26'0 0.0
2019-Jul-16 11:58N 43°44' E 007°26'0 0.0
2019-Jul-16 11:28N 43°44' E 007°26'0 0.0
2019-Jul-16 11:01N 43°44' E 007°26'0 0.0
2019-Jul-16 10:28N 43°44' E 007°26'0 0.0
2019-Jul-16 10:01N 43°44' E 007°26'0 0.0
2019-Jul-16 09:31N 43°44' E 007°26'0 0.0
2019-Jul-16 09:01N 43°44' E 007°26'0 0.0
2019-Jul-16 08:28N 43°44' E 007°26'0 0.0
2019-Jul-16 08:01N 43°44' E 007°26'0 0.0
2019-Jul-16 07:31N 43°44' E 007°26'0 0.0
2019-Jul-16 07:01N 43°44' E 007°26'0 0.0
2019-Jul-16 06:31N 43°44' E 007°26'0 0.2
2019-Jul-16 06:01N 43°44' E 007°26'1 1.6
2019-Jul-16 05:31N 43°44' E 007°27'611.3
2019-Jul-16 05:00N 43°44' E 007°35'612.5
2019-Jul-16 04:30N 43°43' E 007°44'612.5
2019-Jul-16 04:00N 43°44' E 007°52'713.3
2019-Jul-16 03:30N 43°44' E 008°01'612.9
2019-Jul-16 03:01N 43°43' E 008°10'713.0
2019-Jul-16 02:31N 43°43' E 008°19'713.0
2019-Jul-16 02:00N 43°40' E 008°28'713.2
2019-Jul-16 01:31N 43°37' E 008°35'713.1
2019-Jul-16 01:01N 43°34' E 008°43'613.0
2019-Jul-16 00:31N 43°30' E 008°50'713.3
2019-Jul-16 00:01N 43°25' E 008°57'713.9
2019-Jul-15 23:30N 43°20' E 009°03'714.6
2019-Jul-15 23:00N 43°13' E 009°07'714.6
2019-Jul-15 22:31N 43°06' E 009°06'714.0
2019-Jul-15 22:00N 42°59' E 009°04'1913.1
2019-Jul-15 20:35N 42°44' E 008°50'112.8
2019-Jul-15 20:30N 42°43' E 008°48'612.5
2019-Jul-15 20:00N 42°39' E 008°42'612.0
2019-Jul-15 19:30N 42°35' E 008°36'612.0
2019-Jul-15 18:59N 42°29' E 008°32'812.6
2019-Jul-15 18:19N 42°22' E 008°29'41 3.0
2019-Jul-15 04:47N 41°40' E 008°32'413.4
2019-Jul-15 04:30N 41°37' E 008°35'713.3
2019-Jul-15 03:59N 41°32' E 008°41'6012.0
2019-Jul-14 22:59N 41°34' E 010°01'815.9
2019-Jul-14 22:30N 41°37' E 010°10'815.9
2019-Jul-14 22:00N 41°40' E 010°20'1516.2
2019-Jul-14 21:03N 41°46' E 010°39'116.2
2019-Jul-14 21:00N 41°47' E 010°40'1416.0
2019-Jul-14 20:09N 41°52' E 010°57'215.9
2019-Jul-14 20:00N 41°53' E 010°60'815.8
2019-Jul-14 19:29N 41°56' E 011°10'815.8
2019-Jul-14 19:00N 41°59' E 011°19'15 0.9
2019-Jul-14 01:46N 42°07' E 011°03'412.7
2019-Jul-14 01:28N 42°08' E 010°58'2110.5
2019-Jul-13 23:28N 42°23' E 010°38'1712.6
2019-Jul-13 22:06N 42°40' E 010°34'312.7
2019-Jul-13 21:52N 42°43' E 010°33'512.7
2019-Jul-13 21:30N 42°48' E 010°32'612.5
2019-Jul-13 21:01N 42°53' E 010°30'612.7
2019-Jul-13 20:31N 42°59' E 010°26'612.6
2019-Jul-13 20:01N 43°05' E 010°22'612.6
2019-Jul-13 19:31N 43°10' E 010°19'612.7
2019-Jul-13 19:01N 43°16' E 010°15'612.8
2019-Jul-13 18:31N 43°22' E 010°10'612.2
2019-Jul-13 18:01N 43°28' E 010°10'510.4
2019-Jul-13 17:31N 43°32' E 010°14'3 5.5
2019-Jul-13 17:01N 43°33' E 010°18'0 0.1
2019-Jul-13 16:29N 43°33' E 010°18'0 0.0
2019-Jul-13 15:59N 43°33' E 010°18'0 0.0
2019-Jul-13 15:26N 43°33' E 010°18'0 0.0
2019-Jul-13 14:59N 43°33' E 010°18'0 0.0
2019-Jul-13 14:29N 43°33' E 010°18'0 0.0
2019-Jul-13 13:59N 43°33' E 010°18'0 0.0
2019-Jul-13 13:29N 43°33' E 010°18'0 0.0
2019-Jul-13 12:59N 43°33' E 010°18'0 0.0
2019-Jul-13 12:29N 43°33' E 010°18'0 0.0
2019-Jul-13 11:59N 43°33' E 010°18'0 0.0
2019-Jul-13 11:29N 43°33' E 010°18'0 0.0
2019-Jul-13 10:59N 43°33' E 010°18'0 0.0
2019-Jul-13 10:29N 43°33' E 010°18'0 0.0
2019-Jul-13 09:59N 43°33' E 010°18'0 0.0
2019-Jul-13 09:29N 43°33' E 010°18'0 0.0
2019-Jul-13 08:59N 43°33' E 010°18'0 0.0
2019-Jul-13 08:29N 43°33' E 010°18'0 0.0
2019-Jul-13 07:59N 43°33' E 010°18'0 0.0
2019-Jul-13 07:29N 43°33' E 010°18'0 0.0
2019-Jul-13 06:56N 43°33' E 010°18'0 0.0
2019-Jul-13 06:29N 43°33' E 010°18'0 0.0
2019-Jul-13 05:59N 43°33' E 010°18'0 0.0
2019-Jul-13 05:29N 43°33' E 010°18'0 0.5
2019-Jul-13 05:00N 43°33' E 010°17'3 6.3
2019-Jul-13 04:30N 43°31' E 010°14'510.2
2019-Jul-13 04:00N 43°27' E 010°09'612.0
2019-Jul-13 03:30N 43°23' E 010°03'612.3
2019-Jul-13 03:00N 43°19' E 009°56'612.4
2019-Jul-13 02:30N 43°16' E 009°49'612.2
2019-Jul-13 02:00N 43°13' E 009°41'612.2
2019-Jul-13 01:30N 43°10' E 009°34'612.0
2019-Jul-13 01:00N 43°07' E 009°27'612.1
2019-Jul-13 00:30N 43°05' E 009°20'612.1
2019-Jul-13 00:00N 43°01' E 009°13'612.1
2019-Jul-12 23:30N 42°57' E 009°07'612.7
2019-Jul-12 23:00N 42°53' E 009°01'612.4
2019-Jul-12 22:30N 42°48' E 008°54'612.1
2019-Jul-12 22:00N 42°45' E 008°48'612.3
2019-Jul-12 21:30N 42°40' E 008°42'612.2
2019-Jul-12 21:00N 42°36' E 008°36'612.2
2019-Jul-12 20:30N 42°31' E 008°32'612.2
2019-Jul-12 20:00N 42°25' E 008°28'611.9
2019-Jul-12 19:29N 42°19' E 008°26'612.3
2019-Jul-12 19:00N 42°13' E 008°26'1112.3
2019-Jul-12 18:07N 42°02' E 008°28'212.3
2019-Jul-12 18:00N 42°01' E 008°28'  
Track history (hours):
 
Tides and Currents Weather Stations Pressure Air Temp Water Temp Dewpoint Dewpoint Depression Visibility Wind Speed Wind Dir Waves Ship Positions

Christina O

Operator: V Ships Leisure SAM

Last reported at 2019-Jul-22 13:29 UTC. Time now 2019-Jul-22 14:00 UTC.
Position N 41°47' E 011°46'.

Length 186 m; draft 6.1 m.

Type: Passenger vessel. MMSI: 308322000.

Date/timePositionNaut miles runAvg speedWind from/ knotsBaromVisibWave heightAir tempDewpointWater temp
2019-Jul-22 13:29N 41°47' E 011°46'4 9.3
2019-Jul-22 13:00N 41°50' E 011°42'9 9.4
2019-Jul-22 12:05N 41°57' E 011°35'1 9.3
2019-Jul-22 11:59N 41°58' E 011°35'27 9.3
2019-Jul-22 09:07N 42°18' E 011°11'1 9.5
2019-Jul-22 09:00N 42°19' E 011°10'5 9.5
2019-Jul-22 08:28N 42°22' E 011°04'4 9.6
2019-Jul-22 08:00N 42°25' E 010°60'5 9.4
2019-Jul-22 07:30N 42°28' E 010°56'5 9.4
2019-Jul-22 07:00N 42°32' E 010°52'5 9.5
2019-Jul-22 06:30N 42°36' E 010°48'5 9.6
2019-Jul-22 06:00N 42°39' E 010°44'5 9.4
2019-Jul-22 05:30N 42°43' E 010°40'5 9.5
2019-Jul-22 05:00N 42°47' E 010°36'5 9.4
2019-Jul-22 04:30N 42°51' E 010°32'5 9.5
2019-Jul-22 04:00N 42°55' E 010°28'5 9.5
2019-Jul-22 03:30N 42°59' E 010°25'5 9.4
2019-Jul-22 03:00N 43°03' E 010°22'5 9.6
2019-Jul-22 02:30N 43°07' E 010°19'5 9.6
2019-Jul-22 02:00N 43°11' E 010°15'5 9.3
2019-Jul-22 01:30N 43°15' E 010°12'5 9.1
2019-Jul-22 01:00N 43°19' E 010°09'5 9.1
2019-Jul-22 00:30N 43°23' E 010°06'5 9.3
2019-Jul-22 00:00N 43°27' E 010°03'5 9.5
2019-Jul-21 23:30N 43°31' E 009°59'5 9.5
2019-Jul-21 23:00N 43°35' E 009°55'5 9.3
2019-Jul-21 22:30N 43°39' E 009°53'5 9.3
2019-Jul-21 22:00N 43°44' E 009°53'5 9.6
2019-Jul-21 21:30N 43°49' E 009°53'5 9.6
2019-Jul-21 21:00N 43°54' E 009°53'510.7
2019-Jul-21 20:30N 43°59' E 009°53'5 9.0
2019-Jul-21 20:00N 44°03' E 009°51'0 0.2
2019-Jul-21 19:29N 44°03' E 009°51'0 0.0
2019-Jul-21 18:59N 44°03' E 009°51'0 0.0
2019-Jul-21 18:29N 44°03' E 009°51'0 0.0
2019-Jul-21 17:59N 44°03' E 009°51'0 0.0
2019-Jul-21 17:29N 44°03' E 009°51'0 0.0
2019-Jul-21 16:59N 44°03' E 009°51'0 0.0
2019-Jul-21 16:29N 44°03' E 009°51'0 0.0
2019-Jul-21 15:59N 44°03' E 009°51'0 0.0
2019-Jul-21 15:29N 44°03' E 009°51'0 0.0
2019-Jul-21 14:59N 44°03' E 009°51'0 0.0
2019-Jul-21 14:29N 44°03' E 009°51'0 0.0
2019-Jul-21 13:59N 44°03' E 009°51'0 0.0
2019-Jul-21 13:29N 44°03' E 009°51'0 0.0
2019-Jul-21 12:59N 44°03' E 009°51'0 0.0
2019-Jul-21 12:29N 44°03' E 009°51'0 0.0
2019-Jul-21 11:59N 44°03' E 009°51'0 0.1
2019-Jul-21 11:29N 44°03' E 009°51'0 0.0
2019-Jul-21 10:59N 44°03' E 009°51'0 0.0
2019-Jul-21 10:29N 44°03' E 009°51'0 0.0
2019-Jul-21 09:58N 44°03' E 009°51'0 0.0
2019-Jul-21 09:29N 44°03' E 009°51'0 0.0
2019-Jul-21 08:59N 44°03' E 009°51'0 0.0
2019-Jul-21 08:29N 44°03' E 009°51'0 0.0
2019-Jul-21 07:59N 44°03' E 009°51'0 0.0
2019-Jul-21 07:29N 44°03' E 009°51'0 0.0
2019-Jul-21 06:58N 44°03' E 009°51'0 0.0
2019-Jul-21 06:29N 44°03' E 009°51'0 0.0
2019-Jul-21 05:59N 44°03' E 009°51'0 0.0
2019-Jul-21 05:30N 44°03' E 009°51'1 1.6
2019-Jul-21 05:00N 44°03' E 009°52'3 6.2
2019-Jul-21 04:31N 44°01' E 009°56'612.5
2019-Jul-21 04:00N 43°56' E 009°51'612.5
2019-Jul-21 03:30N 43°53' E 009°43'612.7
2019-Jul-21 03:00N 43°52' E 009°34'713.1
2019-Jul-21 02:31N 43°51' E 009°25'815.1
2019-Jul-21 02:01N 43°50' E 009°15'816.2
2019-Jul-21 01:31N 43°49' E 009°04'816.0
2019-Jul-21 01:01N 43°48' E 008°53'816.0
2019-Jul-21 00:31N 43°46' E 008°42'816.1
2019-Jul-21 00:01N 43°45' E 008°31'815.9
2019-Jul-20 23:31N 43°44' E 008°20'815.9
2019-Jul-20 23:01N 43°43' E 008°09'815.8
2019-Jul-20 22:31N 43°43' E 007°58'815.8
2019-Jul-20 22:01N 43°43' E 007°47'816.0
2019-Jul-20 21:31N 43°44' E 007°36'714.0
2019-Jul-20 21:01N 43°44' E 007°27'0 0.1
2019-Jul-20 20:30N 43°44' E 007°26'0 0.0
2019-Jul-20 20:00N 43°44' E 007°26'0 0.0
2019-Jul-20 19:30N 43°44' E 007°26'0 0.0
2019-Jul-20 19:00N 43°44' E 007°26'0 0.0
2019-Jul-20 18:30N 43°44' E 007°26'0 0.0
2019-Jul-20 18:00N 43°44' E 007°26'0 0.0
2019-Jul-20 17:30N 43°44' E 007°27'0 0.0
2019-Jul-20 17:00N 43°44' E 007°27'0 0.0
2019-Jul-20 16:30N 43°44' E 007°27'0 0.0
2019-Jul-20 16:00N 43°44' E 007°26'0 0.0
2019-Jul-20 15:30N 43°44' E 007°26'0 0.0
2019-Jul-20 15:00N 43°44' E 007°26'0 0.0
2019-Jul-20 14:30N 43°44' E 007°26'0 0.0
2019-Jul-20 14:00N 43°44' E 007°26'0 0.0
2019-Jul-20 13:30N 43°44' E 007°26'0 0.0
2019-Jul-20 12:59N 43°44' E 007°26'0 0.0
2019-Jul-20 12:30N 43°44' E 007°26'0 0.0
2019-Jul-20 12:00N 43°44' E 007°26'0 0.0
2019-Jul-20 11:30N 43°44' E 007°26'0 0.0
2019-Jul-20 11:00N 43°44' E 007°26'0 0.0
2019-Jul-20 10:30N 43°44' E 007°26'0 0.0
2019-Jul-20 10:00N 43°44' E 007°26'0 0.0
2019-Jul-20 09:29N 43°44' E 007°26'0 0.0
2019-Jul-20 09:00N 43°44' E 007°26'0 0.0
2019-Jul-20 08:30N 43°44' E 007°26'0 0.0
2019-Jul-20 07:59N 43°44' E 007°26'0 0.0
2019-Jul-20 07:30N 43°44' E 007°26'0 0.0
2019-Jul-20 07:00N 43°44' E 007°26'0 0.0
2019-Jul-20 06:30N 43°44' E 007°26'0 0.0
2019-Jul-20 06:00N 43°44' E 007°26'0 0.0
2019-Jul-20 05:27N 43°44' E 007°26'0 0.1
2019-Jul-20 05:00N 43°44' E 007°27'2 4.6
2019-Jul-20 04:30N 43°42' E 007°28'4 8.4
2019-Jul-20 04:00N 43°39' E 007°25'510.5
2019-Jul-20 03:30N 43°34' E 007°21'510.4
2019-Jul-20 03:00N 43°31' E 007°16'510.6
2019-Jul-20 02:30N 43°27' E 007°11'510.7
2019-Jul-20 02:00N 43°23' E 007°06'510.5
2019-Jul-20 01:30N 43°19' E 007°01'510.3
2019-Jul-20 01:00N 43°16' E 006°56'510.4
2019-Jul-20 00:30N 43°12' E 006°51'510.6
2019-Jul-20 00:00N 43°08' E 006°46'510.6
2019-Jul-19 23:30N 43°04' E 006°41'510.7
2019-Jul-19 23:00N 43°00' E 006°36'510.5
2019-Jul-19 22:30N 42°57' E 006°30'510.4
2019-Jul-19 22:00N 42°55' E 006°24'510.4
2019-Jul-19 21:30N 42°55' E 006°17'510.4
2019-Jul-19 21:00N 42°55' E 006°10'510.5
2019-Jul-19 20:30N 42°56' E 006°03'510.4
2019-Jul-19 20:00N 42°57' E 005°56'16 9.9
2019-Jul-19 18:23N 43°03' E 005°35'4 9.9
2019-Jul-19 18:00N 43°04' E 005°31'6 9.9
2019-Jul-19 17:24N 43°07' E 005°23'8 9.1
2019-Jul-19 16:28N 43°15' E 005°18'4 0.5
2019-Jul-19 09:11N 43°18' E 005°22'0 0.0
2019-Jul-19 08:59N 43°18' E 005°22'0 0.0
2019-Jul-19 08:30N 43°18' E 005°22'0 0.0
2019-Jul-19 07:59N 43°18' E 005°22'0 0.0
2019-Jul-19 07:29N 43°18' E 005°22'0 0.0
2019-Jul-19 06:59N 43°18' E 005°22'0 0.0
2019-Jul-19 06:29N 43°18' E 005°22'0 0.0
2019-Jul-19 05:59N 43°18' E 005°22'16813.6
2019-Jul-18 17:40N 41°25' E 002°34'315.5
2019-Jul-18 17:30N 41°24' E 002°31'815.5
2019-Jul-18 17:00N 41°20' E 002°22'815.2
2019-Jul-18 16:30N 41°21' E 002°12'2 3.1
2019-Jul-18 15:56N 41°22' E 002°11'0 0.0
2019-Jul-18 15:29N 41°22' E 002°11'0 0.0
2019-Jul-18 14:56N 41°22' E 002°11'0 0.0
2019-Jul-18 14:29N 41°22' E 002°11'0 0.0
2019-Jul-18 13:59N 41°22' E 002°11'0 0.0
2019-Jul-18 13:29N 41°22' E 002°11'0 0.0
2019-Jul-18 12:59N 41°22' E 002°11'0 0.0
2019-Jul-18 12:29N 41°22' E 002°11'0 0.0
2019-Jul-18 11:50N 41°22' E 002°11'0 0.0
2019-Jul-18 11:29N 41°22' E 002°11'0 0.0
2019-Jul-18 10:59N 41°22' E 002°11'0 0.0
2019-Jul-18 10:20N 41°22' E 002°11'0 0.0
2019-Jul-18 09:59N 41°22' E 002°11'0 0.0
2019-Jul-18 09:26N 41°22' E 002°11'0 0.0
2019-Jul-18 08:50N 41°22' E 002°11'0 0.0
2019-Jul-18 08:29N 41°22' E 002°11'0 0.0
2019-Jul-18 07:59N 41°22' E 002°11'0 0.0
2019-Jul-18 07:29N 41°22' E 002°11'0 0.0
2019-Jul-18 06:56N 41°22' E 002°11'0 0.0
2019-Jul-18 06:23N 41°22' E 002°11'0 0.0
2019-Jul-18 05:47N 41°22' E 002°11'0 0.0
2019-Jul-18 05:26N 41°22' E 002°11'0 0.0
2019-Jul-18 04:56N 41°22' E 002°11'0 0.0
2019-Jul-18 04:26N 41°22' E 002°11'0 0.0
2019-Jul-18 03:59N 41°22' E 002°11'0 0.0
2019-Jul-18 03:26N 41°22' E 002°11'0 0.0
2019-Jul-18 02:59N 41°22' E 002°11'0 0.0
2019-Jul-18 02:26N 41°22' E 002°11'0 0.0
2019-Jul-18 01:59N 41°22' E 002°11'0 0.0
2019-Jul-18 01:29N 41°22' E 002°11'0 0.0
2019-Jul-18 00:59N 41°22' E 002°11'0 0.0
2019-Jul-18 00:29N 41°22' E 002°11'0 0.0
2019-Jul-17 23:59N 41°22' E 002°11'0 0.0
2019-Jul-17 23:29N 41°22' E 002°11'0 0.0
2019-Jul-17 22:59N 41°22' E 002°11'0 0.0
2019-Jul-17 22:29N 41°22' E 002°11'0 0.0
2019-Jul-17 21:59N 41°22' E 002°11'0 0.0
2019-Jul-17 21:29N 41°22' E 002°11'0 0.0
2019-Jul-17 20:59N 41°22' E 002°11'0 0.0
2019-Jul-17 20:26N 41°22' E 002°11'0 0.0
2019-Jul-17 19:59N 41°22' E 002°11'0 0.0
2019-Jul-17 19:29N 41°22' E 002°11'0 0.0
2019-Jul-17 18:59N 41°22' E 002°11'0 0.0
2019-Jul-17 18:29N 41°22' E 002°11'0 0.0
2019-Jul-17 17:59N 41°22' E 002°11'0 0.0
2019-Jul-17 17:29N 41°22' E 002°11'0 0.0
2019-Jul-17 16:59N 41°22' E 002°11'0 0.0
2019-Jul-17 16:29N 41°22' E 002°11'0 0.0
2019-Jul-17 15:59N 41°22' E 002°11'0 0.0
2019-Jul-17 15:26N 41°22' E 002°11'0 0.0
2019-Jul-17 14:59N 41°22' E 002°11'0 0.0
2019-Jul-17 14:29N 41°22' E 002°11'0 0.0
2019-Jul-17 13:59N 41°22' E 002°11'0 0.0
2019-Jul-17 13:29N 41°22' E 002°11'0 0.0
2019-Jul-17 12:59N 41°22' E 002°11'0 0.0
2019-Jul-17 12:26N 41°22' E 002°11'0 0.0
2019-Jul-17 11:59N 41°22' E 002°11'0 0.0
2019-Jul-17 11:29N 41°22' E 002°11'0 0.0
2019-Jul-17 10:59N 41°22' E 002°11'0 0.0
2019-Jul-17 10:30N 41°22' E 002°11'1 1.1
2019-Jul-17 10:00N 41°22' E 002°11'4 7.7
2019-Jul-17 09:30N 41°20' E 002°16'713.0
2019-Jul-17 09:00N 41°20' E 002°24'612.9
2019-Jul-17 08:30N 41°23' E 002°32'714.2
2019-Jul-17 08:00N 41°26' E 002°41'2015.6
2019-Jul-17 06:43N 41°35' E 003°05'615.8
2019-Jul-17 06:22N 41°38' E 003°11'615.8
2019-Jul-17 06:00N 41°41' E 003°18'815.9
2019-Jul-17 05:31N 41°44' E 003°27'815.9
2019-Jul-17 05:00N 41°48' E 003°37'815.9
2019-Jul-17 04:30N 41°52' E 003°46'815.9
2019-Jul-17 04:00N 41°56' E 003°56'816.0
2019-Jul-17 03:30N 41°59' E 004°05'816.0
2019-Jul-17 03:00N 42°03' E 004°15'816.0
2019-Jul-17 02:30N 42°07' E 004°25'816.1
2019-Jul-17 02:00N 42°10' E 004°34'816.3
2019-Jul-17 01:30N 42°14' E 004°44'1116.1
2019-Jul-17 00:48N 42°19' E 004°58'516.0
2019-Jul-17 00:27N 42°22' E 005°04'2816.1
2019-Jul-16 22:42N 42°35' E 005°38'316.4
2019-Jul-16 22:30N 42°36' E 005°42'1715.9
2019-Jul-16 21:25N 42°44' E 006°03'716.1
2019-Jul-16 21:00N 42°47' E 006°11'1216.2
2019-Jul-16 20:14N 42°54' E 006°25'416.2
2019-Jul-16 20:00N 42°56' E 006°30'816.3
2019-Jul-16 19:30N 43°02' E 006°38'816.4
2019-Jul-16 19:01N 43°08' E 006°45'816.4
2019-Jul-16 18:31N 43°14' E 006°53'816.2
2019-Jul-16 18:00N 43°20' E 007°01'816.2
2019-Jul-16 17:31N 43°25' E 007°08'816.4
2019-Jul-16 17:00N 43°31' E 007°16'816.2
2019-Jul-16 16:31N 43°37' E 007°24'714.1
2019-Jul-16 16:00N 43°44' E 007°27'1 1.1
2019-Jul-16 15:31N 43°44' E 007°26'0 0.0
2019-Jul-16 15:01N 43°44' E 007°26'0 0.0
2019-Jul-16 14:31N 43°44' E 007°26'0 0.0
2019-Jul-16 13:58N 43°44' E 007°26'0 0.0
2019-Jul-16 13:31N 43°44' E 007°26'0 0.0
2019-Jul-16 12:58N 43°44' E 007°26'0 0.0
2019-Jul-16 12:31N 43°44' E 007°26'0 0.0
2019-Jul-16 11:58N 43°44' E 007°26'0 0.0
2019-Jul-16 11:28N 43°44' E 007°26'0 0.0
2019-Jul-16 11:01N 43°44' E 007°26'0 0.0
2019-Jul-16 10:28N 43°44' E 007°26'0 0.0
2019-Jul-16 10:01N 43°44' E 007°26'0 0.0
2019-Jul-16 09:31N 43°44' E 007°26'0 0.0
2019-Jul-16 09:01N 43°44' E 007°26'0 0.0
2019-Jul-16 08:28N 43°44' E 007°26'0 0.0
2019-Jul-16 08:01N 43°44' E 007°26'0 0.0
2019-Jul-16 07:31N 43°44' E 007°26'0 0.0
2019-Jul-16 07:01N 43°44' E 007°26'0 0.0
2019-Jul-16 06:31N 43°44' E 007°26'0 0.2
2019-Jul-16 06:01N 43°44' E 007°26'1 1.6
2019-Jul-16 05:31N 43°44' E 007°27'611.3
2019-Jul-16 05:00N 43°44' E 007°35'612.5
2019-Jul-16 04:30N 43°43' E 007°44'612.5
2019-Jul-16 04:00N 43°44' E 007°52'713.3
2019-Jul-16 03:30N 43°44' E 008°01'612.9
2019-Jul-16 03:01N 43°43' E 008°10'713.0
2019-Jul-16 02:31N 43°43' E 008°19'713.0
2019-Jul-16 02:00N 43°40' E 008°28'713.2
2019-Jul-16 01:31N 43°37' E 008°35'713.1
2019-Jul-16 01:01N 43°34' E 008°43'613.0
2019-Jul-16 00:31N 43°30' E 008°50'713.3
2019-Jul-16 00:01N 43°25' E 008°57'713.9
2019-Jul-15 23:30N 43°20' E 009°03'714.6
2019-Jul-15 23:00N 43°13' E 009°07'714.6
2019-Jul-15 22:31N 43°06' E 009°06'714.0
2019-Jul-15 22:00N 42°59' E 009°04'1913.1
2019-Jul-15 20:35N 42°44' E 008°50'112.8
2019-Jul-15 20:30N 42°43' E 008°48'612.5
2019-Jul-15 20:00N 42°39' E 008°42'612.0
2019-Jul-15 19:30N 42°35' E 008°36'612.0
2019-Jul-15 18:59N 42°29' E 008°32'812.6
2019-Jul-15 18:19N 42°22' E 008°29'41 3.0
2019-Jul-15 04:47N 41°40' E 008°32'413.4
2019-Jul-15 04:30N 41°37' E 008°35'713.3
2019-Jul-15 03:59N 41°32' E 008°41'6012.0
2019-Jul-14 22:59N 41°34' E 010°01'815.9
2019-Jul-14 22:30N 41°37' E 010°10'815.9
2019-Jul-14 22:00N 41°40' E 010°20'1516.2
2019-Jul-14 21:03N 41°46' E 010°39'116.2
2019-Jul-14 21:00N 41°47' E 010°40'1416.0
2019-Jul-14 20:09N 41°52' E 010°57'215.9
2019-Jul-14 20:00N 41°53' E 010°60'815.8
2019-Jul-14 19:29N 41°56' E 011°10'815.8
2019-Jul-14 19:00N 41°59' E 011°19'15 0.9
2019-Jul-14 01:46N 42°07' E 011°03'412.7
2019-Jul-14 01:28N 42°08' E 010°58'2110.5
2019-Jul-13 23:28N 42°23' E 010°38'1712.6
2019-Jul-13 22:06N 42°40' E 010°34'312.7
2019-Jul-13 21:52N 42°43' E 010°33'512.7
2019-Jul-13 21:30N 42°48' E 010°32'612.5
2019-Jul-13 21:01N 42°53' E 010°30'612.7
2019-Jul-13 20:31N 42°59' E 010°26'612.6
2019-Jul-13 20:01N 43°05' E 010°22'612.6
2019-Jul-13 19:31N 43°10' E 010°19'612.7
2019-Jul-13 19:01N 43°16' E 010°15'612.8
2019-Jul-13 18:31N 43°22' E 010°10'612.2
2019-Jul-13 18:01N 43°28' E 010°10'510.4
2019-Jul-13 17:31N 43°32' E 010°14'3 5.5
2019-Jul-13 17:01N 43°33' E 010°18'0 0.1
2019-Jul-13 16:29N 43°33' E 010°18'0 0.0
2019-Jul-13 15:59N 43°33' E 010°18'0 0.0
2019-Jul-13 15:26N 43°33' E 010°18'0 0.0
2019-Jul-13 14:59N 43°33' E 010°18'0 0.0
2019-Jul-13 14:29N 43°33' E 010°18'0 0.0
2019-Jul-13 13:59N 43°33' E 010°18'0 0.0
2019-Jul-13 13:29N 43°33' E 010°18'0 0.0
2019-Jul-13 12:59N 43°33' E 010°18'0 0.0
2019-Jul-13 12:29N 43°33' E 010°18'0 0.0
2019-Jul-13 11:59N 43°33' E 010°18'0 0.0
2019-Jul-13 11:29N 43°33' E 010°18'0 0.0
2019-Jul-13 10:59N 43°33' E 010°18'0 0.0
2019-Jul-13 10:29N 43°33' E 010°18'0 0.0
2019-Jul-13 09:59N 43°33' E 010°18'0 0.0
2019-Jul-13 09:29N 43°33' E 010°18'0 0.0
2019-Jul-13 08:59N 43°33' E 010°18'0 0.0
2019-Jul-13 08:29N 43°33' E 010°18'0 0.0
2019-Jul-13 07:59N 43°33' E 010°18'0 0.0
2019-Jul-13 07:29N 43°33' E 010°18'0 0.0
2019-Jul-13 06:56N 43°33' E 010°18'0 0.0
2019-Jul-13 06:29N 43°33' E 010°18'0 0.0
2019-Jul-13 05:59N 43°33' E 010°18'0 0.0
2019-Jul-13 05:29N 43°33' E 010°18'0 0.5
2019-Jul-13 05:00N 43°33' E 010°17'3 6.3
2019-Jul-13 04:30N 43°31' E 010°14'510.2
2019-Jul-13 04:00N 43°27' E 010°09'612.0
2019-Jul-13 03:30N 43°23' E 010°03'612.3
2019-Jul-13 03:00N 43°19' E 009°56'612.4
2019-Jul-13 02:30N 43°16' E 009°49'612.2
2019-Jul-13 02:00N 43°13' E 009°41'612.2
2019-Jul-13 01:30N 43°10' E 009°34'612.0
2019-Jul-13 01:00N 43°07' E 009°27'612.1
2019-Jul-13 00:30N 43°05' E 009°20'612.1
2019-Jul-13 00:00N 43°01' E 009°13'612.1
2019-Jul-12 23:30N 42°57' E 009°07'612.7
2019-Jul-12 23:00N 42°53' E 009°01'612.4
2019-Jul-12 22:30N 42°48' E 008°54'612.1
2019-Jul-12 22:00N 42°45' E 008°48'612.3
2019-Jul-12 21:30N 42°40' E 008°42'612.2
2019-Jul-12 21:00N 42°36' E 008°36'612.2
2019-Jul-12 20:30N 42°31' E 008°32'612.2
2019-Jul-12 20:00N 42°25' E 008°28'611.9
2019-Jul-12 19:29N 42°19' E 008°26'612.3
2019-Jul-12 19:00N 42°13' E 008°26'1112.3
2019-Jul-12 18:07N 42°02' E 008°28'212.3
2019-Jul-12 18:00N 42°01' E 008°28'  

Dump ship's entire track history